Time;durP1;ratioP1;P1;durP2;ratioP2;P2;SDS_P1;SDS_P2;PMS_P1;PMS_P2;Temp;Humidity;BMP_temperature;BMP_pressure;BME280_temperature;BME280_humidity;BME280_pressure;Samples;Min_cycle;Max_cycle;Signal;HPM_P1;HPM_P2
2023/07/04 00:00:12;;;;;;;13.13;10.68;;;;;;;26.33;47.85;98592.97;4918186;29;20039;-68
2023/07/04 00:02:37;;;;;;;15.27;10.50;;;;;;;26.32;48.05;98591.31;4918333;29;20495;-68
2023/07/04 00:05:03;;;;;;;11.15;9.73;;;;;;;26.31;48.00;98601.22;4917983;29;20074;-68
2023/07/04 00:07:31;;;;;;;13.98;9.45;;;;;;;26.32;47.59;98589.47;4935012;29;20039;-68
2023/07/04 00:09:58;;;;;;;13.23;7.95;;;;;;;26.28;47.77;98590.97;4918501;29;20499;-68
2023/07/04 00:12:24;;;;;;;10.80;7.40;;;;;;;26.30;47.46;98591.53;4902436;29;20050;-69
2023/07/04 00:14:49;;;;;;;8.40;7.25;;;;;;;26.25;47.71;98588.72;4934892;29;20036;-68
2023/07/04 00:17:15;;;;;;;11.02;7.55;;;;;;;26.26;47.49;98595.69;4935207;29;20094;-68
2023/07/04 00:19:40;;;;;;;9.00;7.28;;;;;;;26.24;47.67;98592.44;4934962;29;20478;-68
2023/07/04 00:22:10;;;;;;;9.93;7.03;;;;;;;26.21;47.56;98594.75;4934921;29;20040;-68
2023/07/04 00:24:35;;;;;;;9.27;6.90;;;;;;;26.14;47.66;98595.63;4918545;29;20031;-67
2023/07/04 00:27:02;;;;;;;10.00;6.63;;;;;;;26.10;47.68;98588.28;4918218;29;20031;-68
2023/07/04 00:29:28;;;;;;;11.98;6.60;;;;;;;26.06;47.78;98587.06;4902550;29;20067;-68
2023/07/04 00:31:53;;;;;;;12.02;6.93;;;;;;;26.02;47.78;98586.69;4917945;29;20071;-68
2023/07/04 00:34:20;;;;;;;10.18;7.20;;;;;;;26.04;48.23;98592.63;4935058;29;20110;-68
2023/07/04 00:36:47;;;;;;;7.68;6.65;;;;;;;26.02;48.11;98602.75;4904876;29;20075;-68
2023/07/04 00:39:12;;;;;;;8.07;6.72;;;;;;;25.97;48.30;98591.91;4921599;29;20126;-68
2023/07/04 00:41:38;;;;;;;10.38;5.97;;;;;;;25.94;47.90;98585.09;4921490;29;20118;-68
2023/07/04 00:44:19;;;;;;;6.85;5.97;;;;;;;25.93;48.38;98596.00;4890441;29;20047;-68
2023/07/04 00:47:11;;;;;;;8.32;6.28;;;;;;;25.89;48.27;98603.66;4909729;29;20048;-69
2023/07/04 00:49:42;;;;;;;7.18;5.85;;;;;;;25.86;48.62;98598.75;4898911;29;20476;-68
2023/07/04 00:52:10;;;;;;;7.63;6.03;;;;;;;25.80;48.45;98597.75;4898625;29;20044;-69
2023/07/04 00:54:40;;;;;;;7.68;6.07;;;;;;;25.83;48.69;98605.34;4898245;29;20586;-68
2023/07/04 00:57:06;;;;;;;6.90;5.80;;;;;;;25.83;48.39;98609.88;4898443;29;20128;-68
2023/07/04 00:59:38;;;;;;;7.50;6.03;;;;;;;25.78;48.91;98607.84;4898372;29;20041;-68
2023/07/04 01:02:04;;;;;;;6.70;6.00;;;;;;;25.73;48.55;98612.22;4898111;29;20044;-68
2023/07/04 01:04:30;;;;;;;9.65;5.95;;;;;;;25.70;49.07;98623.38;4882862;29;20036;-68
2023/07/04 01:07:04;;;;;;;6.43;5.05;;;;;;;25.70;48.84;98616.16;4898326;29;20118;-68
2023/07/04 01:09:29;;;;;;;6.90;5.57;;;;;;;25.67;48.76;98616.59;4882722;29;20412;-68
2023/07/04 01:11:55;;;;;;;6.70;5.50;;;;;;;25.67;48.69;98611.25;4898282;29;20035;-69
2023/07/04 01:14:22;;;;;;;6.55;5.30;;;;;;;25.68;48.94;98614.72;4898144;29;20075;-71
2023/07/04 01:16:48;;;;;;;9.23;5.68;;;;;;;25.66;48.93;98614.13;4896829;29;20532;-68
2023/07/04 01:19:14;;;;;;;6.03;5.18;;;;;;;25.69;48.99;98627.06;4882336;29;20060;-68
2023/07/04 01:21:40;;;;;;;7.57;5.78;;;;;;;25.71;48.93;98622.31;4882565;29;20469;-68
2023/07/04 01:24:08;;;;;;;7.03;5.20;;;;;;;25.72;48.82;98621.28;4882431;29;20112;-68
2023/07/04 01:26:38;;;;;;;7.40;5.50;;;;;;;25.70;48.92;98618.03;4908176;29;20040;-68
2023/07/04 01:29:07;;;;;;;7.43;5.40;;;;;;;25.69;48.74;98619.06;4902067;29;20035;-68
2023/07/04 01:31:35;;;;;;;8.07;5.65;;;;;;;25.74;48.75;98621.88;4917689;29;20107;-68
2023/07/04 01:34:02;;;;;;;7.88;5.55;;;;;;;25.72;48.95;98618.63;4905770;29;20036;-68
2023/07/04 01:36:30;;;;;;;9.85;5.93;;;;;;;25.72;48.67;98621.28;4921054;29;20557;-68
2023/07/04 01:38:55;;;;;;;6.90;5.80;;;;;;;25.69;48.58;98625.22;4905351;29;20123;-69
2023/07/04 01:41:24;;;;;;;6.72;6.00;;;;;;;25.67;48.80;98619.28;4920606;29;20119;-68
2023/07/04 01:43:56;;;;;;;7.00;5.70;;;;;;;25.63;48.92;98610.88;4905568;29;20472;-68
2023/07/04 01:46:21;;;;;;;8.32;5.75;;;;;;;25.66;49.04;98620.28;4920624;29;20115;-68
2023/07/04 01:48:47;;;;;;;7.75;5.90;;;;;;;25.64;48.75;98628.53;4920578;29;20023;-68
2023/07/04 01:51:13;;;;;;;7.93;5.63;;;;;;;25.58;49.06;98616.03;4937390;29;20043;-68
2023/07/04 01:53:38;;;;;;;12.30;5.60;;;;;;;25.63;48.63;98632.25;4919829;29;20044;-68
2023/07/04 01:56:04;;;;;;;6.28;5.45;;;;;;;25.61;48.73;98628.16;4937308;29;20055;-68
2023/07/04 01:58:30;;;;;;;7.90;5.13;;;;;;;25.55;48.87;98624.47;4920294;29;20034;-68
2023/07/04 02:00:55;;;;;;;8.23;5.65;;;;;;;25.55;48.83;98621.00;4937010;29;20035;-68
2023/07/04 02:03:21;;;;;;;7.60;5.80;;;;;;;25.52;48.51;98627.59;4920110;29;20114;-68
2023/07/04 02:05:46;;;;;;;6.20;5.13;;;;;;;25.45;49.05;98619.63;4920650;29;20043;-68
2023/07/04 02:08:12;;;;;;;6.35;5.53;;;;;;;25.45;48.76;98626.84;4936845;29;20039;-68
2023/07/04 02:10:37;;;;;;;8.13;5.07;;;;;;;25.41;48.69;98629.13;4936862;29;20396;-68
2023/07/04 02:13:02;;;;;;;8.07;5.18;;;;;;;25.40;48.62;98627.47;4937263;29;20095;-68
2023/07/04 02:15:28;;;;;;;9.25;4.88;;;;;;;25.38;48.96;98626.03;4920381;29;20392;-68
2023/07/04 02:17:53;;;;;;;6.07;4.70;;;;;;;25.35;48.85;98624.66;4920060;29;20035;-68
2023/07/04 02:20:20;;;;;;;6.63;5.03;;;;;;;25.34;48.68;98625.66;4904616;29;20028;-68
2023/07/04 02:22:46;;;;;;;7.75;5.07;;;;;;;25.31;49.04;98620.75;4920120;29;20054;-68
2023/07/04 02:25:11;;;;;;;7.57;4.70;;;;;;;25.26;49.02;98620.56;4920059;29;20467;-68
2023/07/04 02:27:37;;;;;;;6.55;5.03;;;;;;;25.26;48.81;98616.03;4919642;29;20039;-68
2023/07/04 02:30:03;;;;;;;6.53;4.90;;;;;;;25.25;48.98;98617.06;4919824;29;20051;-68
2023/07/04 02:32:29;;;;;;;5.93;5.00;;;;;;;25.23;48.85;98620.97;4936804;29;20566;-68
2023/07/04 02:34:54;;;;;;;7.47;4.90;;;;;;;25.21;48.96;98623.06;4936632;29;20040;-68
2023/07/04 02:37:20;;;;;;;6.38;4.57;;;;;;;25.18;48.78;98613.63;4919679;29;20058;-68
2023/07/04 02:39:45;;;;;;;8.50;4.70;;;;;;;25.17;49.18;98616.50;4936208;29;20043;-67
2023/07/04 02:42:12;;;;;;;5.55;4.43;;;;;;;25.16;48.85;98622.88;4936474;29;20063;-68
2023/07/04 02:44:37;;;;;;;7.63;4.30;;;;;;;25.14;48.89;98631.09;4904224;29;20070;-68
2023/07/04 02:47:03;;;;;;;5.97;4.43;;;;;;;25.11;48.79;98623.50;4919751;29;20036;-67
2023/07/04 02:49:29;;;;;;;8.45;4.32;;;;;;;25.14;48.98;98628.41;4919109;29;20055;-68
2023/07/04 02:51:54;;;;;;;6.45;4.40;;;;;;;25.16;48.92;98630.88;4936339;29;20024;-68
2023/07/04 02:54:20;;;;;;;4.93;4.13;;;;;;;25.11;48.95;98618.16;4935942;29;20463;-68
2023/07/04 02:56:46;;;;;;;6.95;4.30;;;;;;;25.17;49.19;98628.00;4919403;29;20415;-68
2023/07/04 02:59:11;;;;;;;4.70;3.85;;;;;;;25.18;48.83;98626.16;4935449;29;20075;-68
2023/07/04 03:01:37;;;;;;;7.25;4.00;;;;;;;25.22;48.81;98619.34;4919118;29;20020;-68
2023/07/04 03:04:02;;;;;;;6.20;4.15;;;;;;;25.30;48.68;98624.44;4919178;29;20067;-68
2023/07/04 03:06:28;;;;;;;6.05;3.95;;;;;;;25.30;48.78;98621.78;4936016;29;20044;-68
2023/07/04 03:08:56;;;;;;;6.30;3.95;;;;;;;25.42;48.30;98629.94;4919019;29;20463;-68
2023/07/04 03:11:21;;;;;;;6.65;3.80;;;;;;;25.50;48.35;98631.53;4919535;29;20098;-69
2023/07/04 03:13:47;;;;;;;5.43;3.60;;;;;;;25.62;47.88;98625.25;4919033;29;20028;-68
2023/07/04 03:16:12;;;;;;;7.38;4.00;;;;;;;25.93;47.08;98623.56;4918867;29;20044;-68
2023/07/04 03:18:38;;;;;;;4.30;3.70;;;;;;;26.25;46.83;98620.84;4935794;29;20039;-68
2023/07/04 03:21:03;;;;;;;4.13;3.65;;;;;;;26.58;45.70;98624.16;4935850;29;20395;-68
2023/07/04 03:23:29;;;;;;;6.03;3.90;;;;;;;26.90;44.94;98619.50;4918448;29;20046;-68
2023/07/04 03:25:54;;;;;;;4.00;3.38;;;;;;;27.29;44.10;98619.16;4917790;29;20059;-68
2023/07/04 03:28:19;;;;;;;4.13;3.65;;;;;;;27.62;43.62;98616.00;4934096;29;20039;-68
2023/07/04 03:30:45;;;;;;;4.55;3.38;;;;;;;27.97;42.52;98621.44;4935822;29;20094;-68
2023/07/04 03:33:10;;;;;;;6.28;3.90;;;;;;;28.29;41.79;98621.06;4918012;29;20043;-68
2023/07/04 03:35:37;;;;;;;5.93;3.78;;;;;;;28.63;41.34;98621.25;4935254;29;20035;-68
2023/07/04 03:38:03;;;;;;;4.93;3.83;;;;;;;29.05;40.49;98620.19;4918045;29;20415;-68
2023/07/04 03:40:28;;;;;;;5.43;3.90;;;;;;;29.42;39.41;98620.59;4934065;29;20027;-69
2023/07/04 03:42:54;;;;;;;4.95;3.80;;;;;;;29.72;38.65;98614.09;4935213;29;20051;-69
2023/07/04 03:45:19;;;;;;;4.70;3.67;;;;;;;30.09;38.64;98615.47;4918464;29;20056;-69
2023/07/04 03:47:44;;;;;;;7.72;4.00;;;;;;;30.43;37.81;98613.53;4934412;29;20373;-73
2023/07/04 03:50:13;;;;;;;6.72;3.55;;;;;;;30.94;37.12;98617.91;4918349;29;20039;-72
2023/07/04 03:52:38;;;;;;;8.45;3.90;;;;;;;31.44;36.33;98618.66;4918724;29;20130;-73
2023/07/04 03:55:04;;;;;;;6.55;3.25;;;;;;;31.90;35.10;98622.56;4902849;29;20036;-73
2023/07/04 03:57:30;;;;;;;12.15;3.53;;;;;;;32.33;34.31;98622.56;4934505;29;20582;-73
2023/07/04 03:59:55;;;;;;;7.80;3.63;;;;;;;32.74;34.11;98624.69;4933428;29;20048;-73
2023/07/04 04:02:21;;;;;;;12.20;3.63;;;;;;;33.13;33.67;98621.50;4935157;29;20038;-73
2023/07/04 04:04:46;;;;;;;14.90;4.00;;;;;;;33.45;32.87;98626.72;4935226;29;20043;-75
2023/07/04 04:07:12;;;;;;;26.02;3.53;;;;;;;33.81;32.24;98624.06;4918642;29;20079;-75
2023/07/04 04:09:38;;;;;;;10.63;3.50;;;;;;;34.15;31.76;98625.34;4918104;29;20487;-75
2023/07/04 04:12:04;;;;;;;8.32;3.60;;;;;;;34.50;31.30;98634.47;4935266;29;20023;-74
2023/07/04 04:14:30;;;;;;;9.68;3.92;;;;;;;34.75;30.91;98625.44;4917698;29;20036;-77
2023/07/04 04:16:56;;;;;;;10.45;3.92;;;;;;;34.99;30.76;98627.47;4918010;29;20037;-75
2023/07/04 04:19:22;;;;;;;9.93;3.85;;;;;;;35.38;30.16;98627.53;4918337;29;20100;-79
2023/07/04 04:21:48;;;;;;;10.95;4.00;;;;;;;35.67;29.90;98640.31;4917827;29;20031;-78
2023/07/04 04:24:13;;;;;;;5.28;3.50;;;;;;;35.94;29.02;98641.72;4934781;29;20039;-78
2023/07/04 04:26:40;;;;;;;7.13;3.83;;;;;;;36.23;28.36;98639.00;4916909;29;20036;-78
2023/07/04 04:29:06;;;;;;;5.55;3.80;;;;;;;36.53;27.80;98642.47;4917395;29;20035;-78
2023/07/04 04:31:37;;;;;;;10.05;3.80;;;;;;;36.85;27.94;98652.69;4917375;29;20040;-79
2023/07/04 04:34:05;;;;;;;8.18;3.83;;;;;;;37.16;27.95;98644.09;4917343;29;20503;-78
2023/07/04 04:36:31;;;;;;;21.90;4.55;;;;;;;37.48;27.47;98648.00;4902571;29;20036;-73
2023/07/04 04:38:59;;;;;;;14.30;3.60;;;;;;;37.86;26.73;98650.66;4934588;29;20458;-69
2023/07/04 04:41:24;;;;;;;12.43;3.75;;;;;;;38.34;26.39;98653.06;4933697;29;20039;-76
2023/07/04 04:43:50;;;;;;;10.02;3.75;;;;;;;38.84;25.48;98652.34;4902161;29;20222;-72
2023/07/04 04:46:16;;;;;;;7.05;3.10;;;;;;;39.21;24.68;98652.38;4917170;29;20051;-72
2023/07/04 04:48:41;;;;;;;8.60;3.95;;;;;;;39.53;24.36;98661.47;4917511;29;20023;-72
2023/07/04 04:51:08;;;;;;;8.57;3.50;;;;;;;39.77;24.00;98663.84;4934423;29;20042;-72
2023/07/04 04:53:37;;;;;;;6.22;3.60;;;;;;;40.03;23.50;98661.31;4917664;29;20031;-72
2023/07/04 04:56:03;;;;;;;8.30;3.60;;;;;;;40.33;23.06;98656.13;4901812;29;20040;-72
2023/07/04 04:58:29;;;;;;;6.28;3.13;;;;;;;40.59;22.65;98658.16;4917004;29;20043;-72
2023/07/04 05:00:54;;;;;;;8.80;3.50;;;;;;;40.82;22.44;98656.91;4917120;29;20036;-71
2023/07/04 05:03:20;;;;;;;5.78;3.25;;;;;;;41.16;22.20;98660.81;4906553;29;20067;-74
2023/07/04 05:05:45;;;;;;;12.43;3.55;;;;;;;41.41;21.65;98661.16;4918069;29;20513;-71
2023/07/04 05:08:11;;;;;;;5.97;3.25;;;;;;;41.74;21.93;98661.47;4917469;29;20043;-70
2023/07/04 05:10:37;;;;;;;4.75;3.40;;;;;;;42.01;21.46;98664.13;4901458;29;20451;-70
2023/07/04 05:13:02;;;;;;;9.63;3.47;;;;;;;42.21;21.00;98665.34;4917616;29;20476;-72
2023/07/04 05:15:28;;;;;;;6.90;3.20;;;;;;;42.39;21.17;98666.09;4901941;29;20046;-71
2023/07/04 05:17:53;;;;;;;7.97;3.08;;;;;;;42.74;20.87;98666.72;4901691;29;20147;-70
2023/07/04 05:20:23;;;;;;;8.27;3.20;;;;;;;43.07;20.43;98663.28;4901860;29;20032;-74
2023/07/04 05:22:49;;;;;;;6.47;2.92;;;;;;;43.52;19.92;98656.28;4889503;29;20032;-72
2023/07/04 05:25:15;;;;;;;9.52;3.08;;;;;;;43.93;19.58;98662.81;4905434;29;20023;-71
2023/07/04 05:27:41;;;;;;;5.87;3.00;;;;;;;44.44;19.37;98668.03;4920766;29;20042;-71
2023/07/04 05:30:08;;;;;;;9.88;2.85;;;;;;;44.87;19.31;98668.59;4921011;29;20072;-73
2023/07/04 05:32:33;;;;;;;10.95;3.20;;;;;;;45.27;18.67;98668.59;4905175;29;20072;-73
2023/07/04 05:34:59;;;;;;;11.53;3.40;;;;;;;45.66;18.11;98665.34;4920834;29;20110;-74
2023/07/04 05:37:25;;;;;;;8.18;2.78;;;;;;;45.96;17.90;98674.03;4905474;29;20459;-75
2023/07/04 05:39:51;;;;;;;6.17;2.97;;;;;;;46.26;17.35;98673.59;4904885;29;20118;-75
2023/07/04 05:42:16;;;;;;;6.73;2.80;;;;;;;46.49;17.59;98683.97;4937043;29;20534;-74
2023/07/04 05:44:42;;;;;;;11.73;4.10;;;;;;;46.70;17.54;98667.94;4937447;29;20503;-74
2023/07/04 05:47:07;;;;;;;7.53;3.77;;;;;;;46.93;17.41;98665.28;4904504;29;20047;-75
2023/07/04 05:49:33;;;;;;;10.37;3.47;;;;;;;47.13;16.92;98679.13;4919189;29;20073;-73
2023/07/04 05:51:58;;;;;;;8.33;3.43;;;;;;;47.28;16.58;98680.19;4903742;29;20512;-75
2023/07/04 05:54:24;;;;;;;16.87;3.30;;;;;;;47.16;16.69;98672.88;4937344;29;20477;-75
2023/07/04 05:56:53;;;;;;;7.10;2.83;;;;;;;47.08;16.95;98669.16;4904765;29;20032;-79
2023/07/04 05:59:19;;;;;;;7.68;3.13;;;;;;;46.98;16.82;98668.94;4905033;29;20035;-74
2023/07/04 06:01:45;;;;;;;9.03;2.40;;;;;;;46.98;16.84;98675.25;4937187;29;20439;-72
2023/07/04 06:04:11;;;;;;;8.10;2.70;;;;;;;46.91;17.21;98669.56;4920345;29;20114;-71
2023/07/04 06:06:38;;;;;;;6.85;2.60;;;;;;;47.13;17.06;98681.88;4904413;29;20391;-71
2023/07/04 06:09:05;;;;;;;7.63;3.50;;;;;;;47.36;17.07;98667.34;4920112;29;20039;-81
2023/07/04 06:11:32;;;;;;;7.28;4.65;;;;;;;47.56;16.64;98670.91;4906691;29;20075;-82
2023/07/04 06:13:58;;;;;;;9.75;4.60;;;;;;;47.69;16.99;98666.81;4908095;29;20032;-83
2023/07/04 06:16:24;;;;;;;11.77;5.20;;;;;;;47.81;16.51;98671.38;4904711;29;20038;-86
2023/07/04 06:18:49;;;;;;;14.23;4.43;;;;;;;47.89;16.50;98663.97;4921157;29;20491;-85
2023/07/04 06:21:16;;;;;;;7.33;3.90;;;;;;;47.89;16.36;98664.78;4920600;29;20058;-82
2023/07/04 06:23:42;;;;;;;11.65;4.43;;;;;;;48.00;16.34;98659.44;4905135;29;20499;-85
2023/07/04 06:26:08;;;;;;;8.47;4.17;;;;;;;48.05;16.42;98658.34;4904981;29;20027;-85
2023/07/04 06:28:34;;;;;;;13.30;3.80;;;;;;;48.09;16.52;98653.66;4889450;29;20283;-81
2023/07/04 06:31:03;;;;;;;6.15;2.50;;;;;;;47.85;16.82;98652.06;4888558;29;20039;-85
2023/07/04 06:33:29;;;;;;;8.65;3.40;;;;;;;47.77;16.92;98646.41;4936200;29;20028;-79
2023/07/04 06:35:54;;;;;;;12.60;3.00;;;;;;;47.79;16.80;98649.63;4889562;29;20515;-90
2023/07/04 06:38:21;;;;;;;7.27;2.90;;;;;;;47.83;16.83;98641.38;4938157;29;20036;-74
2023/07/04 06:41:22;;;;;;;7.30;2.78;;;;;;;47.65;17.09;98647.38;4904125;29;20418;-83
2023/07/04 06:43:48;;;;;;;4.65;2.70;;;;;;;47.76;16.81;98641.25;4878564;29;20041;-78
2023/07/04 06:46:17;;;;;;;7.77;2.50;;;;;;;47.74;16.69;98647.13;4877875;29;20125;-78
2023/07/04 06:48:46;;;;;;;5.35;2.55;;;;;;;47.72;16.45;98654.22;4878195;29;20085;-75
2023/07/04 06:51:15;;;;;;;8.05;2.70;;;;;;;47.68;16.20;98642.28;4877989;29;20048;-75
2023/07/04 06:53:41;;;;;;;9.95;2.70;;;;;;;47.65;16.32;98641.84;4878006;29;20075;-78
2023/07/04 06:56:08;;;;;;;5.07;2.50;;;;;;;47.62;16.34;98642.56;4878178;29;20120;-78
2023/07/04 06:58:34;;;;;;;5.50;2.60;;;;;;;47.57;16.45;98645.66;4891057;29;20703;-76
2023/07/04 07:01:01;;;;;;;8.52;2.78;;;;;;;47.53;16.38;98647.53;4859686;29;20045;-76
2023/07/04 07:03:27;;;;;;;7.22;2.58;;;;;;;47.43;16.05;98642.59;4860069;29;20047;-76
2023/07/04 07:05:52;;;;;;;5.57;2.70;;;;;;;47.27;16.08;98632.44;4875571;29;20049;-78
2023/07/04 07:08:18;;;;;;;6.70;2.53;;;;;;;47.24;16.50;98648.91;4859880;29;20501;-77
2023/07/04 07:10:58;;;;;;;6.23;2.70;;;;;;;47.10;16.72;98641.97;4860033;29;20549;-78
2023/07/04 07:13:24;;;;;;;10.10;2.75;;;;;;;47.04;16.43;98631.56;4877375;29;20045;-77
2023/07/04 07:15:49;;;;;;;6.22;2.80;;;;;;;47.00;16.43;98642.53;4861618;29;20044;-77
2023/07/04 07:18:15;;;;;;;5.03;2.60;;;;;;;46.90;17.03;98641.13;4918764;29;20059;-76
2023/07/04 07:20:40;;;;;;;5.33;2.60;;;;;;;46.84;16.66;98639.81;4918962;29;20471;-77
2023/07/04 07:23:06;;;;;;;5.97;2.47;;;;;;;46.76;16.57;98641.66;4903030;29;20086;-77
2023/07/04 07:25:31;;;;;;;10.00;2.97;;;;;;;46.71;17.18;98638.34;4903596;29;20075;-77
2023/07/04 07:27:57;;;;;;;5.50;2.93;;;;;;;46.64;17.44;98652.00;4903209;29;20035;-76
2023/07/04 07:30:22;;;;;;;8.07;2.73;;;;;;;46.51;17.37;98648.53;4887627;29;20044;-77
2023/07/04 07:32:48;;;;;;;8.03;2.93;;;;;;;46.44;17.11;98640.91;4918786;29;20043;-80
2023/07/04 07:35:13;;;;;;;5.10;2.60;;;;;;;46.38;17.60;98645.88;4887367;29;20416;-77
2023/07/04 07:37:39;;;;;;;5.30;2.70;;;;;;;46.33;17.67;98648.91;4935499;29;20032;-76
2023/07/04 07:40:05;;;;;;;6.13;2.53;;;;;;;46.26;17.72;98646.00;4935410;29;20032;-79
2023/07/04 07:42:31;;;;;;;3.80;2.47;;;;;;;46.18;17.74;98646.97;4902499;29;20040;-77
2023/07/04 07:44:57;;;;;;;5.50;2.40;;;;;;;46.03;16.82;98643.06;4902300;29;20052;-77
2023/07/04 07:47:22;;;;;;;5.27;2.60;;;;;;;45.87;17.26;98634.78;4918416;29;20278;-77
2023/07/04 07:49:48;;;;;;;5.17;2.43;;;;;;;45.69;17.29;98632.34;4918281;29;20048;-77
2023/07/04 07:52:13;;;;;;;6.93;2.77;;;;;;;45.64;17.52;98646.41;4902241;29;20059;-77
2023/07/04 07:54:38;;;;;;;4.13;2.30;;;;;;;45.52;17.06;98640.94;4918154;29;20042;-78
2023/07/04 07:57:04;;;;;;;4.00;2.43;;;;;;;45.37;16.92;98645.22;4902475;29;20108;-77
2023/07/04 07:59:30;;;;;;;4.00;2.43;;;;;;;45.22;17.15;98646.00;4902043;29;20043;-78
2023/07/04 08:01:56;;;;;;;6.87;2.50;;;;;;;45.09;17.23;98643.31;4902453;29;20035;-78
2023/07/04 08:04:21;;;;;;;9.30;2.40;;;;;;;44.95;17.35;98651.91;4887144;29;20036;-78
2023/07/04 08:06:47;;;;;;;6.00;2.40;;;;;;;44.80;17.05;98647.13;4902661;29;20166;-77
2023/07/04 08:09:15;;;;;;;5.13;2.60;;;;;;;44.69;17.16;98646.00;4902556;29;20078;-77
2023/07/04 08:11:42;;;;;;;5.05;2.50;;;;;;;44.57;17.57;98646.81;4902853;29;20209;-77
2023/07/04 08:14:07;;;;;;;3.47;2.30;;;;;;;44.45;17.79;98642.13;4918106;29;20510;-77
2023/07/04 08:16:45;;;;;;;6.40;2.93;;;;;;;44.35;17.81;98648.09;4917929;29;20043;-76
2023/07/04 08:19:12;;;;;;;6.15;2.67;;;;;;;44.26;18.00;98645.44;4917935;29;20036;-79
2023/07/04 08:21:37;;;;;;;6.25;2.47;;;;;;;44.15;18.25;98645.06;4902347;29;20026;-77
2023/07/04 08:24:10;;;;;;;5.17;2.50;;;;;;;44.12;18.26;98639.47;4902612;29;20053;-76
2023/07/04 08:26:35;;;;;;;7.55;2.67;;;;;;;44.04;18.33;98646.69;4904182;29;20480;-77
2023/07/04 08:29:01;;;;;;;5.77;2.90;;;;;;;43.97;18.50;98640.97;4902235;29;20042;-78
2023/07/04 08:31:27;;;;;;;3.43;2.53;;;;;;;43.82;18.34;98642.41;4886505;29;20036;-77
2023/07/04 08:33:53;;;;;;;4.93;2.70;;;;;;;43.79;18.60;98645.84;4934827;29;20028;-77
2023/07/04 08:36:19;;;;;;;3.17;2.50;;;;;;;43.62;18.63;98646.78;4886699;29;20032;-76
2023/07/04 08:38:47;;;;;;;7.20;2.83;;;;;;;43.48;18.18;98647.13;4886944;29;20044;-78
2023/07/04 08:41:43;;;;;;;7.35;2.75;;;;;;;43.30;18.80;98650.00;4918104;29;20071;-76
2023/07/04 08:44:10;;;;;;;;;;;;;;;43.29;18.85;98659.38;4912065;29;20142;-76
2023/07/04 08:46:44;;;;;;;4.65;2.90;;;;;;;43.25;18.99;98652.16;4917702;29;20013;-77
2023/07/04 08:49:27;;;;;;;5.80;2.60;;;;;;;43.22;19.23;98653.59;4903351;29;20381;-76
2023/07/04 08:51:58;;;;;;;6.35;2.47;;;;;;;43.21;19.30;98641.03;4918055;29;20047;-77
2023/07/04 08:54:24;;;;;;;5.10;2.80;;;;;;;43.13;19.41;98639.19;4902498;29;20063;-78
2023/07/04 08:56:49;;;;;;;6.43;2.97;;;;;;;43.15;19.46;98639.63;4887806;29;20142;-77
2023/07/04 08:59:22;;;;;;;4.60;3.10;;;;;;;42.97;19.28;98637.03;4890295;29;20043;-76
2023/07/04 09:02:12;;;;;;;4.13;2.85;;;;;;;42.96;19.11;98640.09;4922719;29;20032;-78
2023/07/04 09:04:56;;;;;;;7.97;3.00;;;;;;;42.86;19.31;98632.25;4938605;29;20024;-76
2023/07/04 09:07:40;;;;;;;4.13;2.70;;;;;;;42.82;19.54;98640.34;4938723;29;20031;-78
2023/07/04 09:10:20;;;;;;;3.65;2.88;;;;;;;42.55;19.40;98639.72;4938899;29;20071;-78
2023/07/04 09:12:46;;;;;;;4.38;3.00;;;;;;;42.52;19.49;98640.34;4905708;29;20036;-82
2023/07/04 09:15:31;;;;;;;3.47;2.80;;;;;;;42.47;19.53;98635.84;4921312;29;20142;-77
2023/07/04 09:18:31;;;;;;;4.65;2.90;;;;;;;42.38;19.85;98637.03;4905732;29;20035;-78
2023/07/04 09:21:02;;;;;;;8.25;3.20;;;;;;;42.29;19.87;98637.09;4923046;29;20039;-78
2023/07/04 09:23:28;;;;;;;9.23;3.15;;;;;;;42.14;19.58;98638.44;4906070;29;20564;-77
2023/07/04 09:25:55;;;;;;;6.68;2.80;;;;;;;42.08;19.91;98629.59;4905012;29;20047;-78
2023/07/04 09:28:20;;;;;;;5.75;2.80;;;;;;;41.99;20.24;98628.81;4921105;29;20078;-79
2023/07/04 09:30:46;;;;;;;4.43;2.87;;;;;;;41.91;20.20;98630.47;4890003;29;20554;-78
2023/07/04 09:33:11;;;;;;;4.03;3.07;;;;;;;41.84;20.25;98627.41;4921683;29;20032;-78
2023/07/04 09:35:37;;;;;;;5.57;2.70;;;;;;;41.73;20.48;98634.38;4889675;29;20388;-77
2023/07/04 09:38:02;;;;;;;5.60;2.90;;;;;;;41.54;20.93;98621.03;4920964;29;20140;-79
2023/07/04 09:40:48;;;;;;;5.18;3.10;;;;;;;41.35;20.98;98630.38;4905122;29;20046;-77
2023/07/04 09:43:25;;;;;;;4.03;2.95;;;;;;;41.21;21.16;98627.00;4889938;29;20028;-77
2023/07/04 09:45:51;;;;;;;5.72;2.70;;;;;;;41.17;21.22;98629.59;4905049;29;20055;-78
2023/07/04 09:48:23;;;;;;;6.63;2.95;;;;;;;41.11;21.80;98632.81;4889071;29;20063;-78
2023/07/04 09:50:48;;;;;;;5.07;2.85;;;;;;;40.99;21.77;98625.22;4905133;29;20120;-78
2023/07/04 09:53:18;;;;;;;4.03;2.63;;;;;;;40.89;21.67;98626.34;4920622;29;20036;-77
2023/07/04 09:56:00;;;;;;;4.63;2.83;;;;;;;40.81;21.95;98627.94;4905107;29;20036;-76
2023/07/04 09:58:28;;;;;;;3.50;2.78;;;;;;;40.73;21.78;98622.47;4905431;29;20093;-78
2023/07/04 10:00:59;;;;;;;3.88;2.90;;;;;;;40.69;21.91;98623.09;4920811;29;20023;-77
2023/07/04 10:03:25;;;;;;;5.57;2.78;;;;;;;40.61;22.28;98625.81;4937271;29;20102;-77
2023/07/04 10:05:50;;;;;;;3.70;2.83;;;;;;;40.59;22.44;98634.34;4920611;29;20047;-76
2023/07/04 10:08:16;;;;;;;3.60;2.83;;;;;;;40.50;22.86;98633.50;4904705;29;20040;-77
2023/07/04 10:10:55;;;;;;;2.85;2.42;;;;;;;40.50;22.57;98638.97;4920560;29;20123;-76
2023/07/04 10:13:40;;;;;;;5.60;3.10;;;;;;;40.43;22.69;98628.50;4904773;29;20028;-78
2023/07/04 10:16:22;;;;;;;6.35;3.33;;;;;;;40.34;22.65;98624.91;4937419;29;20063;-78
2023/07/04 10:18:47;;;;;;;5.18;2.63;;;;;;;40.17;22.81;98625.69;4905383;29;20079;-78
2023/07/04 10:21:13;;;;;;;3.17;2.78;;;;;;;39.86;23.18;98631.13;4920080;29;20044;-77
2023/07/04 10:23:38;;;;;;;7.57;2.88;;;;;;;39.58;23.22;98623.91;4920398;29;20506;-77
2023/07/04 10:26:05;;;;;;;3.60;2.80;;;;;;;39.28;23.50;98624.63;4920246;29;20059;-77
2023/07/04 10:28:30;;;;;;;4.53;2.90;;;;;;;39.03;23.23;98622.19;4904360;29;20475;-77
2023/07/04 10:31:01;;;;;;;4.00;2.58;;;;;;;38.75;23.70;98618.72;4888635;29;20046;-78
2023/07/04 10:33:40;;;;;;;4.15;2.92;;;;;;;38.46;24.25;98608.09;4889239;29;20099;-77
2023/07/04 10:36:07;;;;;;;3.70;2.90;;;;;;;38.38;24.11;98612.34;4904548;29;20059;-77
2023/07/04 10:38:35;;;;;;;5.25;3.10;;;;;;;38.19;24.39;98616.00;4888723;29;20040;-77
2023/07/04 10:41:10;;;;;;;6.97;3.25;;;;;;;38.03;24.71;98609.19;4903825;29;20130;-78
2023/07/04 10:43:36;;;;;;;7.82;3.03;;;;;;;38.03;24.65;98601.03;4919744;29;20134;-78
2023/07/04 10:46:01;;;;;;;6.07;3.00;;;;;;;38.06;24.48;98597.69;4903769;29;20196;-77
2023/07/04 10:48:30;;;;;;;4.63;2.90;;;;;;;37.97;25.31;98600.34;4904265;29;20032;-78
2023/07/04 10:51:11;;;;;;;5.65;3.20;;;;;;;37.83;24.68;98597.59;4904082;29;20145;-77
2023/07/04 10:53:37;;;;;;;4.75;3.17;;;;;;;37.83;24.80;98588.63;4905147;29;20091;-78
2023/07/04 10:56:08;;;;;;;5.32;3.15;;;;;;;37.82;24.94;98589.72;4903668;29;20555;-78
2023/07/04 10:58:37;;;;;;;4.43;2.80;;;;;;;37.85;25.26;98585.59;4888341;29;20040;-77
2023/07/04 11:01:16;;;;;;;5.07;3.10;;;;;;;37.85;25.23;98583.66;4903811;29;20055;-78
2023/07/04 11:04:25;;;;;;;7.55;3.25;;;;;;;37.82;25.42;98582.34;4903814;29;20058;-76
2023/07/04 11:06:59;;;;;;;4.60;3.10;;;;;;;37.80;25.21;98578.31;4862168;29;20056;-77
2023/07/04 11:09:24;;;;;;;5.45;3.03;;;;;;;37.66;25.44;98575.53;4846489;29;20045;-78
2023/07/04 11:11:50;;;;;;;4.60;2.97;;;;;;;37.64;25.53;98581.28;4877346;29;20052;-76
2023/07/04 11:14:22;;;;;;;5.70;3.13;;;;;;;37.58;25.46;98576.25;4861781;29;20614;-79
2023/07/04 11:16:50;;;;;;;7.63;2.95;;;;;;;37.61;25.42;98575.63;4847202;29;20041;-77
2023/07/04 11:19:27;;;;;;;5.68;3.33;;;;;;;37.55;26.03;98574.13;4861739;29;20036;-77
2023/07/04 11:22:00;;;;;;;6.80;3.85;;;;;;;37.49;26.00;98576.09;4863193;29;20033;-77
2023/07/04 11:24:32;;;;;;;4.20;3.05;;;;;;;37.35;25.43;98564.38;4877444;29;20128;-78
2023/07/04 11:27:05;;;;;;;4.43;2.88;;;;;;;37.29;25.46;98563.63;4862643;29;20100;-77
2023/07/04 11:29:52;;;;;;;4.68;3.30;;;;;;;37.21;26.00;98548.81;4862408;29;20429;-78
2023/07/04 11:32:39;;;;;;;5.57;2.90;;;;;;;37.22;26.45;98565.94;4861863;29;20033;-77
2023/07/04 11:35:10;;;;;;;5.55;3.10;;;;;;;37.20;26.45;98554.53;4878144;29;20420;-78